Terminal Aerodrome Forecast
Issued by NWS

Home | Current Version | Previous Version | Text Only | Print | Product List | Glossary On
Versions: 1 2 3 4 5 6 7 8 9 10 11 12 13 14 15 16 17 18 19 20 21 22
000
FTUS44 KLZK 231000 AAC
TAFLIT
TAF AMD
KLIT 231008Z 2310/2406 14010G18KT P6SM VCSH SCT007 OVC040
      WS020/18040KT
      TEMPO 2310/2314 5SM -RA BR BKN007
     FM231400 17009G16KT P6SM -RA OVC015
     FM231800 20009G16KT P6SM VCSH SCT025 BKN050
      TEMPO 2318/2320 -RA BKN025
     FM240000 24014G24KT P6SM BKN060=

USA.gov is the U.S. government's official web portal to all federal, state and local government web resources and services.